Kalaheo, Hawaii
Current Conditions -  °F | °C
As of 2:53 PM on Sunday 23 Nov 2014 (Local Time) from PHLI Reporting Station
Few Clouds Few Clouds  
Wind Chill: 82°   Ceiling: Unl
Heat Index: 83°   Visibility: 10mi
Dew Point: 62°   Wind: 8mph
Humidity: 51%   Direction: 200°SSW
Pressure: 29.9"   Gusts: 17mph
Location:  21.91°N, 159.5°W
Report Text: PHLI 240053Z 20007G15KT 10SM FEW043 28/17 A2990 RMK AO2 SLP122 T02780167 $
Loading
Personal Weather Stations






























Interactive Weather Map New forecast layout! Learn more

10-Day Weather Forecast

Advertisements
Track Severe Weather on mobile